Terminal Aerodrome Forecast
Issued by NWS

Home | Current Version | Previous Version | Text Only | Print | Product List | Glossary On
Versions: 1 2 3 4 5 6 7 8 9 10 11 12 13
000
FTPA31 PHFO 171738
TAFHJR
TAF
PHJR 171738Z 1718/1818 05005KT P6SM FEW045 SCT060
     FM172000 08008G15KT P6SM FEW045 SCT060
     FM180500 05005KT P6SM FEW030 FEW050=

USA.gov is the U.S. government's official web portal to all federal, state and local government web resources and services.